Time,TemperatureF,DewpointF,PressureIn,WindDirection,WindDirectionDegrees,WindSpeedMPH,WindSpeedGustMPH,Humidity,HourlyPrecipIn,Conditions,Clouds,dailyrainin,SoftwareType,DateUTC
2013-10-24 02:28:00,51.6,42.6,30.10,North,0,0.0,0.0,72,0.00,,,0.00,WUHU216HW,2013-10-24 07:28:00,
2013-10-24 02:33:00,51.4,42.7,30.10,North,0,0.0,0.0,72,0.00,,,0.00,WUHU216HW,2013-10-24 07:33:00,
2013-10-24 02:38:00,51.4,42.7,30.10,North,0,0.0,0.0,72,0.00,,,0.00,WUHU216HW,2013-10-24 07:38:00,
2013-10-24 03:04:00,51.8,43.4,30.10,North,0,0.0,0.0,73,0.00,,,0.00,WUHU216HW,2013-10-24 08:04:00,
2013-10-24 03:09:00,51.8,43.4,30.10,North,0,0.0,0.0,73,0.00,,,0.00,WUHU216HW,2013-10-24 08:09:00,
2013-10-24 03:15:00,52.5,43.7,30.10,North,0,0.0,0.0,71,0.00,,,0.00,WUHU216HW,2013-10-24 08:15:00,
2013-10-24 03:37:00,52.1,42.7,30.09,North,0,0.0,0.0,70,0.00,,,0.00,WUHU216HW,2013-10-24 08:37:00,
2013-10-24 03:42:00,51.9,42.6,30.10,North,0,0.0,0.0,73,0.00,,,0.00,WUHU216HW,2013-10-24 08:42:00,
2013-10-24 03:47:00,51.9,42.6,30.10,North,0,0.0,0.0,73,0.00,,,0.00,WUHU216HW,2013-10-24 08:47:00,
2013-10-24 03:52:00,51.6,42.9,30.10,North,0,0.0,0.0,73,0.00,,,0.00,WUHU216HW,2013-10-24 08:52:00,
2013-10-24 03:57:00,51.4,43.4,30.10,North,0,0.0,0.0,74,0.00,,,0.00,WUHU216HW,2013-10-24 08:57:00,
2013-10-24 04:02:00,51.4,43.4,30.10,North,0,0.0,0.0,74,0.00,,,0.00,WUHU216HW,2013-10-24 09:02:00,
2013-10-24 04:07:00,51.4,43.4,30.10,North,0,0.0,0.0,74,0.00,,,0.00,WUHU216HW,2013-10-24 09:07:00,
2013-10-24 05:40:00,50.5,42.8,30.11,North,0,0.0,0.0,75,0.00,,,0.00,WUHU216HW,2013-10-24 10:40:00,
2013-10-24 05:45:00,50.5,42.8,30.11,North,0,0.0,0.0,75,0.00,,,0.00,WUHU216HW,2013-10-24 10:45:00,
2013-10-24 06:14:00,50.1,42.5,30.11,North,0,0.0,0.0,76,0.00,,,0.00,WUHU216HW,2013-10-24 11:14:00,
2013-10-24 08:27:00,50.5,43.5,30.14,North,0,0.0,0.0,77,0.00,,,0.00,WUHU216HW,2013-10-24 13:27:00,
2013-10-24 08:32:00,50.7,43.7,30.14,North,0,0.0,0.0,77,0.00,,,0.00,WUHU216HW,2013-10-24 13:32:00,
2013-10-24 08:37:00,50.7,43.7,30.14,North,0,0.0,0.0,77,0.00,,,0.00,WUHU216HW,2013-10-24 13:37:00,
2013-10-24 09:05:00,55.2,48.0,30.16,North,0,0.0,0.0,77,0.00,,,0.00,WUHU216HW,2013-10-24 14:05:00,
2013-10-24 09:10:00,56.3,48.4,30.16,North,0,0.0,0.0,75,0.00,,,0.00,WUHU216HW,2013-10-24 14:10:00,
2013-10-24 09:15:00,57.0,48.7,30.16,North,0,0.0,0.0,74,0.00,,,0.00,WUHU216HW,2013-10-24 14:15:00,
2013-10-24 09:20:00,57.7,48.7,30.17,North,0,0.0,0.0,72,0.00,,,0.00,WUHU216HW,2013-10-24 14:20:00,
2013-10-24 09:25:00,59.0,48.0,30.17,North,0,0.0,0.0,67,0.00,,,0.00,WUHU216HW,2013-10-24 14:25:00,
2013-10-24 09:30:00,60.4,47.8,30.18,North,0,0.0,0.0,63,0.00,,,0.00,WUHU216HW,2013-10-24 14:30:00,
2013-10-24 09:36:00,61.1,47.6,30.18,North,0,0.0,0.0,61,0.00,,,0.00,WUHU216HW,2013-10-24 14:36:00,
2013-10-24 09:41:00,63.3,46.7,30.18,North,0,0.0,0.0,55,0.00,,,0.00,WUHU216HW,2013-10-24 14:41:00,
2013-10-24 09:46:00,63.3,46.7,30.18,North,0,0.0,0.0,55,0.00,,,0.00,WUHU216HW,2013-10-24 14:46:00,
2013-10-24 10:42:00,69.9,45.1,30.19,North,0,0.0,0.0,41,0.00,,,0.00,WUHU216HW,2013-10-24 15:42:00,
2013-10-24 10:47:00,69.9,45.1,30.19,North,0,0.0,0.0,41,0.00,,,0.00,WUHU216HW,2013-10-24 15:47:00,
2013-10-24 10:55:00,73.0,47.9,30.19,North,0,0.0,0.0,41,0.00,,,0.00,WUHU216HW,2013-10-24 15:55:00,
2013-10-24 11:00:00,73.7,47.9,30.19,North,0,0.0,0.0,40,0.00,,,0.00,WUHU216HW,2013-10-24 16:00:00,
2013-10-24 11:05:00,74.6,47.2,30.19,North,0,0.0,0.0,38,0.00,,,0.00,WUHU216HW,2013-10-24 16:05:00,
2013-10-24 11:10:00,75.3,48.6,30.19,North,0,0.0,0.0,39,0.00,,,0.00,WUHU216HW,2013-10-24 16:10:00,
2013-10-24 11:15:00,75.7,46.7,30.19,North,0,0.0,0.0,36,0.00,,,0.00,WUHU216HW,2013-10-24 16:15:00,
2013-10-24 11:20:00,75.7,46.7,30.19,North,0,0.0,0.0,38,0.00,,,0.00,WUHU216HW,2013-10-24 16:20:00,
2013-10-24 11:25:00,76.2,48.7,30.19,North,0,0.0,0.0,38,0.00,,,0.00,WUHU216HW,2013-10-24 16:25:00,
2013-10-24 11:30:00,76.2,48.7,30.19,North,0,0.0,0.0,38,0.00,,,0.00,WUHU216HW,2013-10-24 16:30:00,
2013-10-24 16:36:00,84.2,50.2,30.12,North,0,0.0,0.0,31,0.00,,,0.00,WUHU216HW,2013-10-24 21:36:00,
2013-10-24 16:41:00,84.0,50.0,30.12,North,0,0.0,0.0,31,0.00,,,0.00,WUHU216HW,2013-10-24 21:41:00,
2013-10-24 16:46:00,83.3,48.6,30.12,North,0,0.0,0.0,30,0.00,,,0.00,WUHU216HW,2013-10-24 21:46:00,
2013-10-24 16:51:00,82.5,48.7,30.12,North,0,0.0,0.0,31,0.00,,,0.00,WUHU216HW,2013-10-24 21:51:00,
2013-10-24 16:56:00,82.5,48.7,30.12,North,0,0.0,0.0,31,0.00,,,0.00,WUHU216HW,2013-10-24 21:56:00,
2013-10-24 17:10:00,79.1,48.9,30.12,North,0,0.0,0.0,35,0.00,,,0.00,WUHU216HW,2013-10-24 22:10:00,
2013-10-24 17:33:00,76.2,48.7,30.12,North,0,0.0,0.0,38,0.00,,,0.00,WUHU216HW,2013-10-24 22:33:00,
2013-10-24 17:52:00,75.0,48.3,30.11,North,0,0.0,0.0,39,0.00,,,0.00,WUHU216HW,2013-10-24 22:52:00,
2013-10-24 17:57:00,74.1,48.9,30.12,North,0,0.0,0.0,41,0.00,,,0.00,WUHU216HW,2013-10-24 22:57:00,
2013-10-24 18:02:00,73.9,48.7,30.12,North,0,0.0,0.0,41,0.00,,,0.00,WUHU216HW,2013-10-24 23:02:00,
2013-10-24 18:07:00,73.2,48.6,30.12,North,0,0.0,0.0,42,0.00,,,0.00,WUHU216HW,2013-10-24 23:07:00,
2013-10-24 18:12:00,73.2,48.6,30.12,North,0,0.0,0.0,42,0.00,,,0.00,WUHU216HW,2013-10-24 23:12:00,
2013-10-24 18:50:00,69.6,47.8,30.13,North,0,0.0,0.0,46,0.00,,,0.00,WUHU216HW,2013-10-24 23:50:00,
2013-10-24 18:55:00,69.6,47.8,30.13,North,0,0.0,0.0,46,0.00,,,0.00,WUHU216HW,2013-10-24 23:55:00,
2013-10-24 19:19:00,67.2,47.5,30.13,North,0,0.0,0.0,50,0.00,,,0.00,WUHU216HW,2013-10-25 00:19:00,
2013-10-24 19:53:00,66.2,48.5,30.14,North,0,0.0,0.0,53,0.00,,,0.00,WUHU216HW,2013-10-25 00:53:00,
2013-10-24 19:58:00,66.0,48.8,30.15,North,0,0.0,0.0,54,0.00,,,0.00,WUHU216HW,2013-10-25 00:58:00,
2013-10-24 20:03:00,66.0,48.8,30.14,North,0,0.0,0.0,54,0.00,,,0.00,WUHU216HW,2013-10-25 01:03:00,
2013-10-24 20:08:00,66.0,48.8,30.14,North,0,0.0,0.0,54,0.00,,,0.00,WUHU216HW,2013-10-25 01:08:00,
2013-10-24 20:46:00,64.5,48.4,30.16,North,0,0.0,0.0,56,0.00,,,0.00,WUHU216HW,2013-10-25 01:46:00,
2013-10-24 20:57:00,64.2,48.5,30.16,North,0,0.0,0.0,57,0.00,,,0.00,WUHU216HW,2013-10-25 01:57:00,
2013-10-24 21:26:00,64.0,48.8,30.17,North,0,0.0,0.0,58,0.00,,,0.00,WUHU216HW,2013-10-25 02:26:00,
2013-10-24 21:44:00,63.3,48.7,30.17,North,0,0.0,0.0,59,0.00,,,0.00,WUHU216HW,2013-10-25 02:44:00,
2013-10-24 22:07:00,62.4,48.8,30.18,North,0,0.0,0.0,61,0.00,,,0.00,WUHU216HW,2013-10-25 03:07:00,
2013-10-24 22:12:00,62.4,48.8,30.18,North,0,0.0,0.0,62,0.00,,,0.00,WUHU216HW,2013-10-25 03:12:00,
2013-10-24 22:17:00,62.4,48.8,30.18,North,0,0.0,0.0,62,0.00,,,0.00,WUHU216HW,2013-10-25 03:17:00,
2013-10-24 22:31:00,62.4,48.8,30.18,North,0,0.0,0.0,63,0.00,,,0.00,WUHU216HW,2013-10-25 03:31:00,
2013-10-24 23:50:00,59.3,49.2,30.19,North,0,0.0,0.0,69,0.00,,,0.00,WUHU216HW,2013-10-25 04:50:00,